Time;durP1;ratioP1;P1;durP2;ratioP2;P2;SDS_P1;SDS_P2;PMS_P1;PMS_P2;Temp;Humidity;BMP_temperature;BMP_pressure;BME280_temperature;BME280_humidity;BME280_pressure;Samples;Min_cycle;Max_cycle;Signal;HPM_P1;HPM_P2
2023/06/14 00:01:39;;;;;;;3.40;1.80;;;;;;;18.61;46.26;99280.62;4360098;32;34413;-60
2023/06/14 00:04:08;;;;;;;2.90;1.60;;;;;;;18.46;46.40;99285.97;4358224;32;34931;-60
2023/06/14 00:06:36;;;;;;;5.28;1.77;;;;;;;18.48;46.33;99281.22;4358701;32;34003;-61
2023/06/14 00:09:04;;;;;;;4.90;2.17;;;;;;;18.53;46.47;99278.00;4360063;32;33712;-60
2023/06/14 00:11:32;;;;;;;3.67;1.92;;;;;;;18.53;46.48;99275.28;4360975;32;32114;-60
2023/06/14 00:14:00;;;;;;;1.98;1.33;;;;;;;18.47;46.49;99287.66;4361654;32;35036;-60
2023/06/14 00:16:27;;;;;;;2.60;1.73;;;;;;;18.50;46.39;99286.47;4357028;32;33907;-60
2023/06/14 00:18:56;;;;;;;4.25;1.92;;;;;;;18.46;46.49;99296.81;4359397;32;33945;-60
2023/06/14 00:21:23;;;;;;;3.12;1.98;;;;;;;18.47;46.26;99287.66;4358658;32;33023;-60
2023/06/14 00:23:50;;;;;;;3.65;1.33;;;;;;;18.44;46.42;99284.47;4358405;32;33588;-60
2023/06/14 00:26:19;;;;;;;2.33;1.20;;;;;;;18.43;46.42;99296.34;4360002;32;33843;-60
2023/06/14 00:28:47;;;;;;;4.45;2.55;;;;;;;18.39;46.73;99296.69;4357983;32;33724;-61
2023/06/14 00:31:15;;;;;;;4.62;1.65;;;;;;;18.29;47.02;99300.59;4360028;32;35212;-60
2023/06/14 00:33:42;;;;;;;2.30;1.50;;;;;;;18.34;46.95;99300.94;4358450;32;34053;-60
2023/06/14 00:36:11;;;;;;;3.45;2.22;;;;;;;18.44;46.84;99298.84;4359947;32;35040;-60
2023/06/14 00:38:39;;;;;;;3.25;1.52;;;;;;;18.16;47.66;99299.28;4344332;32;34327;-60
2023/06/14 00:41:08;;;;;;;3.50;2.17;;;;;;;18.24;47.73;99289.47;4360363;32;33671;-60
2023/06/14 00:43:36;;;;;;;4.87;2.28;;;;;;;18.38;47.30;99294.13;4360090;32;34123;-60
2023/06/14 00:46:04;;;;;;;2.72;1.73;;;;;;;18.40;47.05;99300.22;4360432;32;33903;-60
2023/06/14 00:48:32;;;;;;;4.93;2.37;;;;;;;18.37;47.03;99301.41;4359478;32;34542;-60
2023/06/14 00:51:03;;;;;;;6.20;2.17;;;;;;;18.32;47.20;99298.38;4360286;32;33097;-61
2023/06/14 00:53:35;;;;;;;7.10;2.62;;;;;;;18.32;47.16;99297.53;4358727;32;33666;-61
2023/06/14 00:56:03;;;;;;;3.50;1.75;;;;;;;18.19;47.57;99298.09;4359371;32;34494;-61
2023/06/14 00:58:31;;;;;;;3.22;1.65;;;;;;;18.22;47.41;99295.03;4360176;32;34051;-61
2023/06/14 01:00:59;;;;;;;10.02;1.92;;;;;;;18.22;47.43;99294.19;4346172;32;34356;-60
2023/06/14 01:03:28;;;;;;;3.97;1.87;;;;;;;18.19;47.44;99299.97;4355612;32;33713;-61
2023/06/14 01:06:03;;;;;;;4.62;1.92;;;;;;;18.14;47.41;99295.91;4361239;32;34641;-61
2023/06/14 01:08:48;;;;;;;2.20;1.48;;;;;;;18.14;47.31;99286.97;4345297;32;33954;-60
2023/06/14 01:11:20;;;;;;;3.62;2.03;;;;;;;18.12;47.40;99292.53;4314384;33;33625;-60
2023/06/14 01:13:49;;;;;;;3.25;1.67;;;;;;;18.06;47.53;99293.22;4300697;33;34462;-61
2023/06/14 01:16:16;;;;;;;4.18;2.05;;;;;;;17.92;48.05;99288.53;4298019;33;34130;-61
2023/06/14 01:18:47;;;;;;;3.40;1.95;;;;;;;18.03;47.84;99290.03;4311354;33;33450;-61
2023/06/14 01:21:23;;;;;;;4.37;2.00;;;;;;;17.95;48.17;99293.59;4312214;33;33484;-60
2023/06/14 01:23:55;;;;;;;4.22;2.47;;;;;;;17.86;48.46;99287.34;4312510;33;34694;-61
2023/06/14 01:26:28;;;;;;;3.53;1.98;;;;;;;18.00;48.21;99283.09;4311496;33;35075;-61
2023/06/14 01:28:58;;;;;;;3.03;2.33;;;;;;;17.90;48.61;99285.16;4302257;33;33445;-61
2023/06/14 01:31:27;;;;;;;5.25;1.98;;;;;;;17.96;48.45;99289.03;4290686;33;33239;-61
2023/06/14 01:33:54;;;;;;;12.88;2.03;;;;;;;17.92;48.51;99286.66;4301904;33;34795;-61
2023/06/14 01:36:26;;;;;;;3.65;2.05;;;;;;;17.97;48.51;99291.56;4311598;33;33674;-61
2023/06/14 01:38:59;;;;;;;5.03;2.05;;;;;;;17.73;49.25;99292.44;4313329;33;33156;-61
2023/06/14 01:41:28;;;;;;;4.78;2.22;;;;;;;17.77;49.52;99290.25;4303995;32;32923;-61
2023/06/14 01:43:56;;;;;;;3.17;1.77;;;;;;;17.73;50.60;99288.88;4344093;32;34632;-61
2023/06/14 01:46:25;;;;;;;2.75;1.85;;;;;;;17.93;50.32;99290.22;4345165;32;34751;-61
2023/06/14 01:48:54;;;;;;;3.80;1.85;;;;;;;18.06;50.12;99295.09;4359395;32;34484;-60
2023/06/14 01:51:22;;;;;;;3.58;1.85;;;;;;;18.04;50.39;99286.28;4358219;32;33869;-60
2023/06/14 01:53:49;;;;;;;2.85;1.95;;;;;;;18.17;50.04;99297.44;4357403;32;33836;-60
2023/06/14 01:56:17;;;;;;;8.38;3.90;;;;;;;18.05;50.60;99294.25;4358613;32;35020;-60
2023/06/14 01:58:48;;;;;;;6.32;2.72;;;;;;;18.10;50.54;99299.97;4359431;32;33563;-60
2023/06/14 02:01:16;;;;;;;2.80;1.75;;;;;;;18.08;50.75;99296.62;4358251;32;34826;-61
2023/06/14 02:03:46;;;;;;;4.82;2.45;;;;;;;18.26;50.17;99296.38;4359044;32;34652;-60
2023/06/14 02:06:15;;;;;;;5.47;2.53;;;;;;;18.32;50.38;99301.09;4358892;32;35035;-61
2023/06/14 02:08:43;;;;;;;8.00;3.10;;;;;;;18.31;51.01;99307.53;4357330;32;35198;-60
2023/06/14 02:11:11;;;;;;;3.92;2.05;;;;;;;18.42;50.55;99306.28;4359565;32;34389;-60
2023/06/14 02:13:38;;;;;;;4.25;2.50;;;;;;;18.44;50.34;99312.41;4358005;32;33695;-61
2023/06/14 02:16:06;;;;;;;5.00;2.08;;;;;;;18.46;50.34;99309.50;4349949;32;33869;-61
2023/06/14 02:18:34;;;;;;;5.18;3.03;;;;;;;18.37;50.46;99308.72;4358646;32;33945;-61
2023/06/14 02:21:02;;;;;;;4.68;1.92;;;;;;;18.49;49.86;99317.28;4358167;32;34134;-61
2023/06/14 02:23:30;;;;;;;7.75;3.15;;;;;;;18.35;49.78;99306.16;4355446;32;33718;-61
2023/06/14 02:26:02;;;;;;;4.62;2.05;;;;;;;18.31;49.43;99312.94;4357805;32;33452;-61
2023/06/14 02:28:30;;;;;;;6.40;2.25;;;;;;;18.36;49.02;99307.00;4356525;32;34935;-61
2023/06/14 02:30:57;;;;;;;5.93;2.28;;;;;;;18.31;49.25;99310.25;4359109;32;33863;-61
2023/06/14 02:33:25;;;;;;;3.67;2.00;;;;;;;18.33;49.16;99308.22;4356560;32;35248;-61
2023/06/14 02:35:53;;;;;;;5.07;2.50;;;;;;;18.36;49.09;99309.72;4359146;32;33977;-61
2023/06/14 02:38:20;;;;;;;4.80;2.05;;;;;;;18.32;49.70;99308.37;4359077;32;33942;-61
2023/06/14 02:40:48;;;;;;;5.12;2.72;;;;;;;18.13;50.08;99315.03;4359268;32;33420;-61
2023/06/14 02:43:17;;;;;;;4.07;2.28;;;;;;;18.13;49.94;99315.03;4358629;32;33723;-61
2023/06/14 02:45:45;;;;;;;7.00;3.10;;;;;;;18.22;49.44;99311.28;4360907;32;33619;-61
2023/06/14 02:48:13;;;;;;;3.70;2.20;;;;;;;18.18;49.62;99315.37;4359547;32;33945;-60
2023/06/14 02:50:41;;;;;;;3.97;2.30;;;;;;;18.09;49.23;99306.41;4360725;32;34611;-60
2023/06/14 02:53:09;;;;;;;6.10;3.53;;;;;;;18.09;49.04;99302.88;4358957;32;34378;-61
2023/06/14 02:55:39;;;;;;;5.00;2.85;;;;;;;18.03;49.11;99307.09;4361601;32;33987;-61
2023/06/14 02:58:08;;;;;;;4.57;2.37;;;;;;;17.90;49.69;99307.66;4360050;32;33718;-62
2023/06/14 03:00:36;;;;;;;4.00;2.62;;;;;;;17.72;51.01;99308.81;4359253;32;33535;-61
2023/06/14 03:03:12;;;;;;;6.50;3.25;;;;;;;17.88;51.38;99307.00;4363849;32;33549;-60
2023/06/14 03:05:49;;;;;;;5.53;3.37;;;;;;;17.88;51.99;99309.69;4357630;32;34054;-60
2023/06/14 03:08:19;;;;;;;6.78;3.90;;;;;;;17.99;52.33;99310.34;4361024;32;33754;-60
2023/06/14 03:10:47;;;;;;;7.45;3.28;;;;;;;18.06;52.43;99305.91;4361122;32;33542;-60
2023/06/14 03:13:22;;;;;;;7.50;3.78;;;;;;;18.14;52.35;99304.03;4361096;32;34288;-60
2023/06/14 03:15:50;;;;;;;9.50;3.53;;;;;;;18.28;52.17;99302.47;4360179;32;33733;-60
2023/06/14 03:18:19;;;;;;;8.15;3.80;;;;;;;18.35;52.33;99308.03;4359678;32;33470;-60
2023/06/14 03:20:46;;;;;;;4.87;2.55;;;;;;;18.34;52.90;99307.19;4357970;32;33286;-60
2023/06/14 03:23:14;;;;;;;11.68;4.57;;;;;;;18.48;52.73;99310.19;4358954;32;33632;-60
2023/06/14 03:25:42;;;;;;;9.25;4.07;;;;;;;18.43;53.20;99305.31;4359994;32;33911;-60
2023/06/14 03:28:10;;;;;;;7.97;3.72;;;;;;;18.58;53.00;99306.22;4362340;32;35023;-60
2023/06/14 03:30:38;;;;;;;9.40;4.93;;;;;;;18.63;53.08;99313.84;4360536;32;34134;-60
2023/06/14 03:33:06;;;;;;;6.90;3.28;;;;;;;18.51;53.58;99310.66;4360952;32;34503;-60
2023/06/14 03:35:34;;;;;;;6.95;3.80;;;;;;;18.74;53.07;99318.88;4360612;32;34226;-60
2023/06/14 03:38:03;;;;;;;6.85;3.92;;;;;;;18.97;52.54;99313.53;4359210;32;34365;-60
2023/06/14 03:40:31;;;;;;;8.30;3.42;;;;;;;19.09;52.29;99320.19;4358188;32;33131;-60
2023/06/14 03:43:00;;;;;;;7.93;3.47;;;;;;;19.22;52.00;99314.19;4361067;32;34908;-60
2023/06/14 03:45:28;;;;;;;10.45;6.25;;;;;;;19.31;51.90;99317.69;4359360;32;34221;-60
2023/06/14 03:47:56;;;;;;;8.98;5.12;;;;;;;19.34;51.98;99319.19;4361058;32;34081;-60
2023/06/14 03:50:24;;;;;;;6.78;3.72;;;;;;;19.42;51.85;99314.56;4358117;32;34712;-60
2023/06/14 03:52:52;;;;;;;7.18;4.05;;;;;;;19.53;51.56;99316.81;4361660;32;33319;-60
2023/06/14 03:55:19;;;;;;;9.18;4.53;;;;;;;19.37;51.85;99314.25;4357221;32;33755;-62
2023/06/14 03:57:50;;;;;;;6.95;4.62;;;;;;;19.49;51.54;99320.09;4359941;32;33916;-61
2023/06/14 04:00:18;;;;;;;7.05;3.80;;;;;;;19.36;51.87;99326.12;4359492;32;32795;-63
2023/06/14 04:02:46;;;;;;;9.43;5.40;;;;;;;19.42;51.70;99324.53;4355513;32;33403;-60
2023/06/14 04:05:14;;;;;;;13.45;4.62;;;;;;;19.60;51.52;99321.53;4360529;32;33966;-60
2023/06/14 04:07:44;;;;;;;8.88;4.35;;;;;;;19.60;51.66;99327.78;4360055;32;33584;-60
2023/06/14 04:10:13;;;;;;;8.35;4.55;;;;;;;19.72;51.39;99334.50;4358233;32;34821;-60
2023/06/14 04:12:41;;;;;;;5.57;3.90;;;;;;;19.77;51.20;99332.09;4361786;32;33757;-61
2023/06/14 04:15:10;;;;;;;8.63;4.37;;;;;;;19.37;51.99;99337.81;4361651;32;34132;-60
2023/06/14 04:17:48;;;;;;;13.57;4.18;;;;;;;19.54;51.69;99344.81;4360508;32;35088;-60
2023/06/14 04:20:16;;;;;;;8.98;4.47;;;;;;;19.56;51.94;99342.75;4356448;32;34657;-60
2023/06/14 04:22:44;;;;;;;10.68;5.30;;;;;;;19.80;51.27;99349.03;4357619;32;33962;-60
2023/06/14 04:25:12;;;;;;;10.07;4.57;;;;;;;19.72;51.25;99339.94;4359854;32;34209;-60
2023/06/14 04:27:41;;;;;;;8.75;4.60;;;;;;;19.92;50.84;99344.84;4356113;32;34799;-60
2023/06/14 04:30:09;;;;;;;7.50;4.15;;;;;;;19.35;51.94;99343.41;4358384;32;33271;-60
2023/06/14 04:32:39;;;;;;;9.18;4.50;;;;;;;19.44;51.82;99346.91;4360107;32;32499;-60
2023/06/14 04:35:08;;;;;;;7.60;4.10;;;;;;;19.68;51.69;99345.94;4359058;32;34733;-60
2023/06/14 04:37:39;;;;;;;10.07;4.75;;;;;;;19.78;51.43;99347.34;4357648;32;34907;-60
2023/06/14 04:40:08;;;;;;;12.95;6.30;;;;;;;19.64;51.62;99350.00;4359155;32;32747;-60
2023/06/14 04:42:40;;;;;;;9.13;4.87;;;;;;;19.51;51.83;99350.59;4358252;32;33980;-61
2023/06/14 04:45:09;;;;;;;6.75;3.95;;;;;;;19.65;51.80;99351.72;4358068;32;33817;-61
2023/06/14 04:47:38;;;;;;;6.90;3.53;;;;;;;19.70;51.15;99354.72;4357823;32;33905;-64
2023/06/14 04:50:06;;;;;;;9.35;4.60;;;;;;;19.64;51.16;99360.87;4358509;32;34242;-65
2023/06/14 04:52:35;;;;;;;6.12;3.10;;;;;;;19.37;52.35;99351.41;4361943;32;35049;-60
2023/06/14 04:55:05;;;;;;;8.50;5.00;;;;;;;19.54;51.68;99350.22;4357577;32;34088;-60
2023/06/14 04:57:33;;;;;;;14.13;3.30;;;;;;;19.54;51.80;99348.34;4356582;32;34608;-60
2023/06/14 05:00:04;;;;;;;8.27;4.57;;;;;;;19.65;51.69;99349.84;4358198;32;34590;-60
2023/06/14 05:02:32;;;;;;;10.88;5.28;;;;;;;19.55;51.56;99358.22;4355475;32;34709;-60
2023/06/14 05:05:01;;;;;;;5.43;3.17;;;;;;;19.26;52.63;99358.06;4358208;32;34138;-60
2023/06/14 05:07:29;;;;;;;10.25;4.90;;;;;;;19.45;52.73;99360.28;4356957;32;33976;-60
2023/06/14 05:09:57;;;;;;;9.00;4.25;;;;;;;19.68;52.71;99356.78;4354828;32;33466;-60
2023/06/14 05:12:25;;;;;;;9.70;5.55;;;;;;;19.88;52.00;99348.97;4357888;32;33654;-60
2023/06/14 05:14:53;;;;;;;9.52;4.05;;;;;;;19.05;53.54;99356.00;4357851;32;33746;-61
2023/06/14 05:17:21;;;;;;;11.07;5.57;;;;;;;19.73;52.35;99360.63;4356320;32;34684;-61
2023/06/14 05:19:48;;;;;;;8.32;3.53;;;;;;;19.71;52.54;99359.97;4356705;32;34787;-62
2023/06/14 05:22:16;;;;;;;8.55;3.70;;;;;;;19.94;51.65;99357.22;4358895;32;35484;-62
2023/06/14 05:24:44;;;;;;;8.27;4.45;;;;;;;19.96;51.20;99357.03;4356557;32;34076;-62
2023/06/14 05:27:12;;;;;;;10.10;3.92;;;;;;;20.00;51.57;99359.19;4358001;32;34164;-62
2023/06/14 05:29:40;;;;;;;8.82;4.07;;;;;;;20.20;51.32;99366.81;4355455;32;33775;-61
2023/06/14 05:32:08;;;;;;;6.80;3.60;;;;;;;20.12;51.39;99358.72;4355707;32;34612;-61
2023/06/14 05:34:35;;;;;;;8.10;4.22;;;;;;;20.31;50.75;99362.78;4356492;32;34262;-61
2023/06/14 05:37:04;;;;;;;5.20;3.33;;;;;;;20.73;50.08;99366.72;4358398;32;34586;-61
2023/06/14 05:39:32;;;;;;;7.82;3.72;;;;;;;20.29;50.21;99371.13;4358508;32;33283;-62
2023/06/14 05:42:00;;;;;;;7.93;4.43;;;;;;;20.19;50.75;99365.09;4356461;32;34953;-62
2023/06/14 05:44:27;;;;;;;5.70;3.47;;;;;;;20.32;49.87;99362.59;4359101;32;33414;-62
2023/06/14 05:46:55;;;;;;;7.12;3.95;;;;;;;20.00;50.92;99361.06;4357105;32;33772;-62
2023/06/14 05:49:23;;;;;;;10.60;4.37;;;;;;;20.03;51.36;99366.09;4358725;32;33361;-62
2023/06/14 05:51:51;;;;;;;9.65;3.53;;;;;;;20.02;51.43;99370.69;4355823;32;34125;-62
2023/06/14 05:54:18;;;;;;;9.50;4.37;;;;;;;20.05;50.92;99366.78;4355324;32;187375;-62
2023/06/14 05:56:46;;;;;;;8.73;3.75;;;;;;;20.04;51.06;99370.53;4359734;32;33407;-62
2023/06/14 05:59:13;;;;;;;11.82;5.70;;;;;;;19.87;50.95;99363.56;4358502;32;34163;-62
2023/06/14 06:01:41;;;;;;;5.53;3.50;;;;;;;19.88;52.21;99374.25;4358154;32;34587;-62
2023/06/14 06:04:09;;;;;;;11.75;4.78;;;;;;;20.16;50.53;99365.47;4360000;32;35880;-62
2023/06/14 06:06:37;;;;;;;6.93;3.45;;;;;;;19.78;52.54;99366.34;4355206;32;35112;-62
2023/06/14 06:09:04;;;;;;;5.87;3.35;;;;;;;19.86;52.20;99370.03;4358793;32;33251;-62
2023/06/14 06:11:32;;;;;;;5.57;3.03;;;;;;;20.18;51.30;99369.69;4356314;32;33619;-62
2023/06/14 06:14:18;;;;;;;7.32;3.50;;;;;;;20.50;50.89;99367.66;4356329;32;35296;-62
2023/06/14 06:16:46;;;;;;;9.77;3.95;;;;;;;20.82;49.47;99365.59;4356651;32;33960;-62
2023/06/14 06:19:14;;;;;;;8.95;4.43;;;;;;;20.90;49.46;99368.22;4350442;32;34329;-62
2023/06/14 06:21:41;;;;;;;7.93;3.22;;;;;;;21.21;48.79;99367.09;4360783;32;34717;-62
2023/06/14 06:24:09;;;;;;;6.28;3.33;;;;;;;21.43;48.58;99371.56;4360387;32;33921;-62
2023/06/14 06:26:37;;;;;;;9.15;3.67;;;;;;;21.48;48.66;99377.28;4359729;32;34579;-62
2023/06/14 06:29:05;;;;;;;8.98;4.00;;;;;;;21.36;47.89;99367.94;4360654;32;34178;-62
2023/06/14 06:31:32;;;;;;;8.02;3.95;;;;;;;21.06;49.12;99373.44;4358964;32;33685;-62
2023/06/14 06:34:00;;;;;;;7.45;3.90;;;;;;;21.31;48.55;99373.06;4358887;32;34025;-62
2023/06/14 06:36:27;;;;;;;6.82;3.15;;;;;;;21.05;48.97;99370.91;4360391;32;33718;-62
2023/06/14 06:38:55;;;;;;;8.55;3.25;;;;;;;21.44;47.59;99369.69;4358430;32;33476;-62
2023/06/14 06:41:23;;;;;;;9.98;4.20;;;;;;;21.58;47.44;99369.63;4360082;32;33720;-62
2023/06/14 06:43:50;;;;;;;6.18;3.97;;;;;;;21.69;46.93;99370.13;4359675;32;33889;-62
2023/06/14 06:46:19;;;;;;;7.07;3.97;;;;;;;21.68;46.61;99379.34;4359281;32;34237;-62
2023/06/14 06:48:46;;;;;;;11.77;3.75;;;;;;;21.38;47.69;99374.03;4360859;32;35117;-62
2023/06/14 06:51:14;;;;;;;10.82;4.55;;;;;;;21.73;47.28;99383.16;4357187;32;33827;-62
2023/06/14 06:53:43;;;;;;;7.53;3.95;;;;;;;21.52;47.42;99383.19;4361582;32;33911;-62
2023/06/14 06:56:16;;;;;;;9.02;4.47;;;;;;;21.58;47.86;99382.41;4357654;32;33947;-62
2023/06/14 06:58:44;;;;;;;7.97;4.37;;;;;;;21.57;47.54;99381.56;4359363;32;33665;-62
2023/06/14 07:01:13;;;;;;;7.78;4.22;;;;;;;21.66;47.34;99384.97;4357812;32;33109;-62
2023/06/14 07:03:40;;;;;;;7.65;4.50;;;;;;;21.65;47.52;99383.31;4352292;32;35478;-62
2023/06/14 07:06:08;;;;;;;8.40;4.37;;;;;;;21.52;47.67;99383.19;4352528;32;33705;-62
2023/06/14 07:08:38;;;;;;;6.85;3.78;;;;;;;21.69;47.14;99384.59;4361026;32;32125;-62
2023/06/14 07:11:06;;;;;;;6.70;3.53;;;;;;;21.52;47.45;99385.91;4360486;32;34656;-62
2023/06/14 07:13:33;;;;;;;12.77;4.97;;;;;;;21.91;46.87;99382.69;4357995;32;33973;-62
2023/06/14 07:16:01;;;;;;;6.80;3.90;;;;;;;21.40;47.32;99378.22;4358824;32;34872;-62
2023/06/14 07:18:29;;;;;;;10.35;5.00;;;;;;;21.83;46.74;99391.03;4358689;32;33080;-62
2023/06/14 07:20:57;;;;;;;8.00;4.82;;;;;;;21.57;47.84;99384.28;4359743;32;33869;-62
2023/06/14 07:23:25;;;;;;;11.35;4.18;;;;;;;22.03;46.64;99385.72;4360200;32;34051;-61
2023/06/14 07:25:52;;;;;;;16.08;5.45;;;;;;;22.06;47.05;99383.44;4360089;32;34539;-62
2023/06/14 07:28:20;;;;;;;9.75;4.82;;;;;;;22.04;47.54;99384.69;4359491;32;33905;-62
2023/06/14 07:30:48;;;;;;;6.22;3.72;;;;;;;22.01;46.12;99385.91;4356522;32;34672;-62
2023/06/14 07:33:15;;;;;;;8.23;4.53;;;;;;;22.28;45.54;99383.44;4358979;32;33959;-62
2023/06/14 07:35:44;;;;;;;8.68;4.43;;;;;;;22.16;45.90;99376.84;4358418;32;33710;-62
2023/06/14 07:38:11;;;;;;;11.57;5.50;;;;;;;22.27;46.06;99382.56;4359079;32;33516;-62
2023/06/14 07:40:38;;;;;;;9.40;4.72;;;;;;;22.07;46.59;99387.00;4360322;32;34743;-62
2023/06/14 07:43:06;;;;;;;8.77;4.60;;;;;;;22.36;46.01;99391.44;4356600;32;34110;-62
2023/06/14 07:45:34;;;;;;;12.82;4.87;;;;;;;22.54;45.95;99388.22;4357775;32;33520;-62
2023/06/14 07:48:02;;;;;;;9.02;5.18;;;;;;;22.39;46.45;99395.66;4353374;32;34590;-62
2023/06/14 07:50:30;;;;;;;12.55;4.95;;;;;;;22.69;45.58;99396.25;4357267;32;33928;-62
2023/06/14 07:52:58;;;;;;;10.80;5.18;;;;;;;22.64;45.79;99398.75;4355511;32;33863;-63
2023/06/14 07:55:26;;;;;;;11.60;5.18;;;;;;;22.64;45.37;99402.31;4352018;32;34072;-63
2023/06/14 07:57:55;;;;;;;10.00;5.30;;;;;;;22.89;44.83;99408.13;4354773;32;35204;-62
2023/06/14 08:00:23;;;;;;;7.80;4.60;;;;;;;22.77;44.59;99409.75;4355844;32;33655;-62
2023/06/14 08:02:51;;;;;;;5.87;3.35;;;;;;;23.07;44.31;99407.59;4352730;32;33719;-61
2023/06/14 08:05:26;;;;;;;7.50;4.40;;;;;;;23.13;43.89;99403.22;4357864;32;33413;-62
2023/06/14 08:07:54;;;;;;;8.75;5.05;;;;;;;23.11;43.89;99403.41;4356824;32;33259;-62
2023/06/14 08:10:22;;;;;;;13.80;5.82;;;;;;;22.64;44.84;99398.75;4359665;32;34508;-61
2023/06/14 08:12:50;;;;;;;7.53;3.95;;;;;;;22.79;44.49;99405.78;4356894;32;33628;-62
2023/06/14 08:15:18;;;;;;;9.20;4.62;;;;;;;22.70;44.87;99406.16;4357180;32;34680;-62
2023/06/14 08:17:48;;;;;;;9.73;4.85;;;;;;;22.98;44.40;99406.91;4356773;32;33577;-62
2023/06/14 08:20:16;;;;;;;11.80;4.25;;;;;;;22.69;44.24;99399.81;4354456;32;33650;-62
2023/06/14 08:22:46;;;;;;;7.35;4.93;;;;;;;23.00;43.67;99398.53;4355821;32;35303;-62
2023/06/14 08:25:13;;;;;;;7.43;4.72;;;;;;;22.96;43.67;99400.84;4360415;32;34082;-62
2023/06/14 08:27:41;;;;;;;9.82;3.67;;;;;;;23.11;44.20;99403.41;4355427;32;33470;-62
2023/06/14 08:30:10;;;;;;;6.70;3.92;;;;;;;22.69;44.44;99404.44;4357793;32;34163;-62
2023/06/14 08:32:37;;;;;;;6.68;4.03;;;;;;;22.98;44.00;99406.91;4356179;32;34078;-62
2023/06/14 08:35:07;;;;;;;10.00;4.03;;;;;;;23.09;43.99;99413.72;4359140;32;33895;-63
2023/06/14 08:37:40;;;;;;;6.97;3.55;;;;;;;23.02;43.73;99415.56;4357723;32;33410;-65
2023/06/14 08:40:28;;;;;;;9.98;4.00;;;;;;;22.82;44.69;99420.03;4356966;32;33785;-65
2023/06/14 08:42:55;;;;;;;8.38;3.75;;;;;;;22.71;44.41;99427.75;4352743;32;34057;-64
2023/06/14 08:45:24;;;;;;;5.35;2.83;;;;;;;23.04;43.78;99427.09;4354818;32;34786;-64
2023/06/14 08:47:59;;;;;;;16.90;3.80;;;;;;;23.03;43.90;99436.34;4359185;32;31815;-65
2023/06/14 08:50:32;;;;;;;4.40;2.50;;;;;;;23.18;43.23;99430.75;4355683;32;33903;-63
2023/06/14 08:53:02;;;;;;;5.43;2.58;;;;;;;23.14;42.95;99440.38;4344377;32;33859;-63
2023/06/14 08:55:32;;;;;;;8.60;3.87;;;;;;;23.17;43.50;99448.16;4357777;32;31987;-64
2023/06/14 08:58:04;;;;;;;8.32;3.22;;;;;;;23.23;43.27;99448.19;4357198;32;33408;-62
2023/06/14 09:00:32;;;;;;;6.82;2.95;;;;;;;23.16;42.06;99450.06;4356507;32;33655;-63
2023/06/14 09:03:01;;;;;;;10.00;3.50;;;;;;;23.31;42.42;99446.34;4354441;32;33962;-63
2023/06/14 09:05:29;;;;;;;6.80;3.03;;;;;;;23.10;43.21;99458.22;4357793;32;34578;-65
2023/06/14 09:08:00;;;;;;;10.25;3.05;;;;;;;23.28;43.47;99452.22;4355127;32;33424;-66
2023/06/14 09:10:37;;;;;;;7.70;3.87;;;;;;;23.35;43.11;99451.19;4354408;32;33753;-70
2023/06/14 09:13:06;;;;;;;9.40;3.83;;;;;;;23.40;43.13;99454.16;4356905;32;34011;-62
2023/06/14 09:15:35;;;;;;;8.23;3.10;;;;;;;23.50;43.23;99453.75;4357640;32;34003;-62
2023/06/14 09:18:03;;;;;;;14.38;3.92;;;;;;;23.54;42.87;99455.03;4359001;32;33422;-63
2023/06/14 09:20:31;;;;;;;4.85;2.67;;;;;;;23.46;42.82;99449.75;4358935;32;34125;-63
2023/06/14 09:23:00;;;;;;;9.18;3.55;;;;;;;23.29;41.82;99454.72;4359337;32;33933;-62
2023/06/14 09:25:28;;;;;;;4.80;2.62;;;;;;;23.30;41.27;99448.22;4357555;32;34068;-62
2023/06/14 09:28:08;;;;;;;6.03;3.15;;;;;;;23.61;41.11;99453.16;4358090;32;32968;-62
2023/06/14 09:30:39;;;;;;;7.45;3.62;;;;;;;23.70;41.70;99456.56;4358170;32;33531;-62
2023/06/14 09:33:08;;;;;;;7.03;3.65;;;;;;;23.87;41.41;99448.81;4357578;32;34691;-62
2023/06/14 09:35:36;;;;;;;13.32;3.85;;;;;;;23.90;42.37;99446.50;4355039;32;33774;-62
2023/06/14 09:38:04;;;;;;;6.35;3.45;;;;;;;23.98;41.37;99441.88;4349339;32;33470;-62
2023/06/14 09:40:34;;;;;;;8.93;3.90;;;;;;;24.21;41.09;99438.75;4360432;32;33902;-62
2023/06/14 09:43:05;;;;;;;9.50;3.70;;;;;;;24.12;41.43;99440.84;4359156;32;34288;-62
2023/06/14 09:45:33;;;;;;;9.20;3.83;;;;;;;24.14;41.26;99438.75;4326802;33;33558;-63
2023/06/14 09:48:01;;;;;;;7.65;3.95;;;;;;;24.29;40.75;99431.16;4331460;33;35165;-64
2023/06/14 09:50:34;;;;;;;7.22;3.85;;;;;;;24.35;40.69;99424.84;4315596;33;33792;-62
2023/06/14 09:53:06;;;;;;;5.87;3.37;;;;;;;24.46;40.89;99431.59;4325759;33;33981;-62
2023/06/14 09:55:37;;;;;;;8.05;3.62;;;;;;;24.33;41.54;99435.19;4328206;33;33313;-62
2023/06/14 09:58:07;;;;;;;6.20;3.17;;;;;;;24.45;40.63;99423.63;4324867;33;33017;-62
2023/06/14 10:00:36;;;;;;;5.45;2.97;;;;;;;24.81;41.16;99428.59;4324447;33;35479;-63
2023/06/14 10:03:13;;;;;;;7.10;3.10;;;;;;;25.05;40.92;99424.31;4327340;33;33757;-63
2023/06/14 10:05:44;;;;;;;9.05;3.45;;;;;;;25.30;40.14;99429.94;4328988;33;33426;-63
2023/06/14 10:08:17;;;;;;;7.32;3.33;;;;;;;25.31;38.70;99423.38;4315071;33;33535;-62
2023/06/14 10:10:45;;;;;;;5.85;2.95;;;;;;;25.32;38.77;99425.91;4310827;33;33917;-62
2023/06/14 10:13:14;;;;;;;5.12;2.47;;;;;;;25.17;37.30;99422.63;4326575;33;35553;-62
2023/06/14 10:15:54;;;;;;;5.37;2.90;;;;;;;25.56;37.05;99427.03;4328114;33;34023;-63
2023/06/14 10:18:52;;;;;;;6.70;3.05;;;;;;;25.89;36.49;99422.44;4342283;33;34519;-62
2023/06/14 10:21:33;;;;;;;9.52;2.70;;;;;;;26.23;35.46;99418.38;4340467;32;35182;-62
2023/06/14 10:24:05;;;;;;;6.22;3.00;;;;;;;26.27;35.70;99414.09;4329875;33;34133;-63
2023/06/14 10:26:32;;;;;;;5.07;2.42;;;;;;;26.43;33.25;99410.78;4328741;33;34357;-63
2023/06/14 10:29:02;;;;;;;8.63;2.78;;;;;;;26.35;31.95;99411.06;4338419;33;33343;-62
2023/06/14 10:31:50;;;;;;;6.03;3.03;;;;;;;25.67;34.04;99414.53;4331452;33;33708;-63
2023/06/14 10:34:25;;;;;;;7.18;2.55;;;;;;;26.66;33.04;99404.66;4329653;33;35298;-63
2023/06/14 10:37:12;;;;;;;7.55;2.95;;;;;;;26.75;32.99;99407.97;4332960;33;33805;-63
2023/06/14 10:39:48;;;;;;;5.22;1.75;;;;;;;26.65;33.39;99408.50;4329166;33;33198;-63
2023/06/14 10:42:17;;;;;;;3.53;2.12;;;;;;;26.50;31.49;99410.75;4324699;33;35087;-63
2023/06/14 10:44:52;;;;;;;4.05;2.15;;;;;;;26.73;30.59;99407.34;4328665;33;33941;-62
2023/06/14 10:47:23;;;;;;;7.47;2.35;;;;;;;27.47;29.83;99402.62;4332172;33;33538;-63
2023/06/14 10:50:03;;;;;;;5.78;2.50;;;;;;;27.29;29.72;99402.69;4332801;33;33025;-63
2023/06/14 10:52:35;;;;;;;6.97;3.10;;;;;;;27.08;29.11;99402.06;4333632;32;33781;-62
2023/06/14 10:55:18;;;;;;;5.00;2.50;;;;;;;27.56;29.04;99394.91;4357417;32;34140;-62
2023/06/14 10:57:52;;;;;;;4.57;2.07;;;;;;;27.53;29.19;99393.44;4357973;32;33601;-63
2023/06/14 11:00:24;;;;;;;4.55;2.25;;;;;;;27.76;28.88;99389.94;4358080;32;34686;-62
2023/06/14 11:03:30;;;;;;;4.47;2.10;;;;;;;27.62;28.81;99391.22;4359855;32;34420;-63
2023/06/14 11:05:58;;;;;;;4.83;2.47;;;;;;;27.94;29.04;99390.97;4358566;32;33802;-62
2023/06/14 11:08:38;;;;;;;4.97;2.17;;;;;;;27.35;31.22;99380.62;4359271;32;33405;-62
2023/06/14 11:11:10;;;;;;;6.15;2.62;;;;;;;27.52;30.10;99386.28;4357749;32;33198;-63
2023/06/14 11:13:45;;;;;;;4.00;2.12;;;;;;;27.78;30.25;99387.00;4358097;32;34260;-63
2023/06/14 11:16:15;;;;;;;4.55;2.70;;;;;;;27.66;29.73;99383.34;4357272;32;33853;-63
2023/06/14 11:18:44;;;;;;;4.07;2.30;;;;;;;27.22;30.90;99389.03;4360119;32;32809;-62
2023/06/14 11:21:16;;;;;;;4.80;2.10;;;;;;;27.30;30.50;99388.72;4359165;32;34381;-63
2023/06/14 11:23:55;;;;;;;3.78;2.15;;;;;;;27.12;31.09;99392.28;4356096;32;33844;-63
2023/06/14 11:26:29;;;;;;;3.30;2.08;;;;;;;27.00;29.63;99383.16;4354242;32;33019;-63
2023/06/14 11:28:59;;;;;;;5.35;2.42;;;;;;;27.19;28.83;99386.72;4357573;32;34082;-64
2023/06/14 11:31:28;;;;;;;4.47;1.87;;;;;;;27.48;28.90;99381.47;4357261;32;33228;-63
2023/06/14 11:33:58;;;;;;;5.20;2.22;;;;;;;27.18;29.24;99376.81;4359371;32;34984;-63
2023/06/14 11:36:29;;;;;;;4.43;2.17;;;;;;;27.50;28.46;99376.59;4360278;32;33747;-63
2023/06/14 11:39:08;;;;;;;4.53;2.05;;;;;;;27.43;29.09;99381.34;4362636;32;34705;-63
2023/06/14 11:41:43;;;;;;;4.15;2.22;;;;;;;26.70;31.33;99377.59;4351174;32;34019;-63
2023/06/14 11:44:11;;;;;;;6.37;2.17;;;;;;;27.16;29.74;99379.81;4347228;32;33746;-63